sensor_id;sensor_type;location;lat;lon;timestamp;temperature;humidity
59041;DHT22;44825;53.200;6.448;2022-07-10T00:02:07;15.50;99.50
59041;DHT22;44825;53.200;6.448;2022-07-10T00:04:37;15.40;99.40
59041;DHT22;44825;53.200;6.448;2022-07-10T00:07:08;15.40;99.40
59041;DHT22;44825;53.200;6.448;2022-07-10T00:09:35;15.40;99.60
59041;DHT22;44825;53.200;6.448;2022-07-10T00:12:04;15.40;99.80
59041;DHT22;44825;53.200;6.448;2022-07-10T00:14:32;15.40;99.90
59041;DHT22;44825;53.200;6.448;2022-07-10T00:16:59;15.40;99.90
59041;DHT22;44825;53.200;6.448;2022-07-10T00:19:27;15.50;99.90
59041;DHT22;44825;53.200;6.448;2022-07-10T00:21:54;15.50;99.90
59041;DHT22;44825;53.200;6.448;2022-07-10T00:24:22;15.50;99.90
59041;DHT22;44825;53.200;6.448;2022-07-10T00:26:49;15.50;99.90
59041;DHT22;44825;53.200;6.448;2022-07-10T00:29:18;15.50;99.90
59041;DHT22;44825;53.200;6.448;2022-07-10T00:31:45;15.50;99.90
59041;DHT22;44825;53.200;6.448;2022-07-10T00:34:12;15.50;99.90
59041;DHT22;44825;53.200;6.448;2022-07-10T00:36:40;15.40;99.90
59041;DHT22;44825;53.200;6.448;2022-07-10T00:39:07;15.40;99.90
59041;DHT22;44825;53.200;6.448;2022-07-10T00:41:34;15.50;99.90
59041;DHT22;44825;53.200;6.448;2022-07-10T00:44:03;15.50;99.90
59041;DHT22;44825;53.200;6.448;2022-07-10T00:46:32;15.50;99.90
59041;DHT22;44825;53.200;6.448;2022-07-10T00:48:59;15.60;99.90
59041;DHT22;44825;53.200;6.448;2022-07-10T00:51:29;15.50;99.90
59041;DHT22;44825;53.200;6.448;2022-07-10T00:53:56;15.50;99.90
59041;DHT22;44825;53.200;6.448;2022-07-10T00:56:25;15.50;99.90
59041;DHT22;44825;53.200;6.448;2022-07-10T00:58:54;15.50;99.90
59041;DHT22;44825;53.200;6.448;2022-07-10T01:01:24;15.50;99.90
59041;DHT22;44825;53.200;6.448;2022-07-10T01:03:52;15.50;99.90
59041;DHT22;44825;53.200;6.448;2022-07-10T01:06:20;15.50;99.90
59041;DHT22;44825;53.200;6.448;2022-07-10T01:08:47;15.50;99.90
59041;DHT22;44825;53.200;6.448;2022-07-10T01:11:15;15.50;99.90
59041;DHT22;44825;53.200;6.448;2022-07-10T01:13:43;15.50;99.90
59041;DHT22;44825;53.200;6.448;2022-07-10T01:16:11;15.40;99.90
59041;DHT22;44825;53.200;6.448;2022-07-10T01:18:39;15.40;99.90
59041;DHT22;44825;53.200;6.448;2022-07-10T01:21:23;15.40;99.90
59041;DHT22;44825;53.200;6.448;2022-07-10T01:23:50;15.40;99.90
59041;DHT22;44825;53.200;6.448;2022-07-10T01:26:19;15.40;99.90
59041;DHT22;44825;53.200;6.448;2022-07-10T01:28:48;15.30;99.90
59041;DHT22;44825;53.200;6.448;2022-07-10T01:31:19;15.30;99.90
59041;DHT22;44825;53.200;6.448;2022-07-10T01:33:47;15.30;99.90
59041;DHT22;44825;53.200;6.448;2022-07-10T01:36:16;15.30;99.80
59041;DHT22;44825;53.200;6.448;2022-07-10T01:38:43;15.30;99.90
59041;DHT22;44825;53.200;6.448;2022-07-10T01:41:11;15.20;99.80
59041;DHT22;44825;53.200;6.448;2022-07-10T01:43:38;15.20;99.70
59041;DHT22;44825;53.200;6.448;2022-07-10T01:46:08;15.20;99.60
59041;DHT22;44825;53.200;6.448;2022-07-10T01:48:37;15.20;99.50
59041;DHT22;44825;53.200;6.448;2022-07-10T01:51:07;15.20;99.50
59041;DHT22;44825;53.200;6.448;2022-07-10T01:53:38;15.10;99.60
59041;DHT22;44825;53.200;6.448;2022-07-10T01:56:07;15.10;99.40
59041;DHT22;44825;53.200;6.448;2022-07-10T01:58:35;15.10;99.50
59041;DHT22;44825;53.200;6.448;2022-07-10T02:01:03;15.10;99.60
59041;DHT22;44825;53.200;6.448;2022-07-10T02:03:31;15.00;99.60
59041;DHT22;44825;53.200;6.448;2022-07-10T02:06:16;15.00;99.70
59041;DHT22;44825;53.200;6.448;2022-07-10T02:08:45;15.00;99.80
59041;DHT22;44825;53.200;6.448;2022-07-10T02:11:12;15.00;99.80
59041;DHT22;44825;53.200;6.448;2022-07-10T02:13:40;15.00;99.80
59041;DHT22;44825;53.200;6.448;2022-07-10T02:16:07;14.90;99.80
59041;DHT22;44825;53.200;6.448;2022-07-10T02:18:35;14.90;99.90
59041;DHT22;44825;53.200;6.448;2022-07-10T02:21:04;14.90;99.90
59041;DHT22;44825;53.200;6.448;2022-07-10T02:23:31;14.90;99.90
59041;DHT22;44825;53.200;6.448;2022-07-10T02:26:01;14.90;99.90
59041;DHT22;44825;53.200;6.448;2022-07-10T02:28:29;14.90;99.90
59041;DHT22;44825;53.200;6.448;2022-07-10T02:30:56;14.90;99.90
59041;DHT22;44825;53.200;6.448;2022-07-10T02:33:23;14.90;99.90
59041;DHT22;44825;53.200;6.448;2022-07-10T02:35:51;14.90;99.80
59041;DHT22;44825;53.200;6.448;2022-07-10T02:38:18;14.90;99.80
59041;DHT22;44825;53.200;6.448;2022-07-10T02:40:45;14.90;99.70
59041;DHT22;44825;53.200;6.448;2022-07-10T02:43:14;15.00;99.70
59041;DHT22;44825;53.200;6.448;2022-07-10T02:45:41;15.00;99.50
59041;DHT22;44825;53.200;6.448;2022-07-10T02:48:09;15.00;99.50
59041;DHT22;44825;53.200;6.448;2022-07-10T02:50:36;15.00;99.40
59041;DHT22;44825;53.200;6.448;2022-07-10T02:53:03;15.00;99.50
59041;DHT22;44825;53.200;6.448;2022-07-10T02:55:31;15.00;99.70
59041;DHT22;44825;53.200;6.448;2022-07-10T02:57:58;14.90;99.70
59041;DHT22;44825;53.200;6.448;2022-07-10T03:00:28;15.00;99.70
59041;DHT22;44825;53.200;6.448;2022-07-10T03:02:55;15.00;99.70
59041;DHT22;44825;53.200;6.448;2022-07-10T03:05:23;15.00;99.80
59041;DHT22;44825;53.200;6.448;2022-07-10T03:07:50;15.00;99.80
59041;DHT22;44825;53.200;6.448;2022-07-10T03:10:18;15.10;99.90
59041;DHT22;44825;53.200;6.448;2022-07-10T03:12:45;15.10;99.90
59041;DHT22;44825;53.200;6.448;2022-07-10T03:15:13;15.20;99.90
59041;DHT22;44825;53.200;6.448;2022-07-10T03:17:42;15.20;99.90
59041;DHT22;44825;53.200;6.448;2022-07-10T03:20:10;15.20;99.90
59041;DHT22;44825;53.200;6.448;2022-07-10T03:22:37;15.20;99.90
59041;DHT22;44825;53.200;6.448;2022-07-10T03:25:06;15.30;99.90
59041;DHT22;44825;53.200;6.448;2022-07-10T03:27:33;15.30;99.90
59041;DHT22;44825;53.200;6.448;2022-07-10T03:30:00;15.30;99.90
59041;DHT22;44825;53.200;6.448;2022-07-10T03:32:28;15.30;99.90
59041;DHT22;44825;53.200;6.448;2022-07-10T03:34:56;15.30;99.90
59041;DHT22;44825;53.200;6.448;2022-07-10T03:37:24;15.40;99.90
59041;DHT22;44825;53.200;6.448;2022-07-10T03:39:51;15.40;99.90
59041;DHT22;44825;53.200;6.448;2022-07-10T03:42:19;15.40;99.90
59041;DHT22;44825;53.200;6.448;2022-07-10T03:44:46;15.40;99.90
59041;DHT22;44825;53.200;6.448;2022-07-10T03:47:13;15.50;99.90
59041;DHT22;44825;53.200;6.448;2022-07-10T03:49:41;15.50;99.90
59041;DHT22;44825;53.200;6.448;2022-07-10T03:52:09;15.50;99.90
59041;DHT22;44825;53.200;6.448;2022-07-10T03:54:37;15.50;99.90
59041;DHT22;44825;53.200;6.448;2022-07-10T03:57:04;15.60;99.90
59041;DHT22;44825;53.200;6.448;2022-07-10T03:59:49;15.60;99.90
59041;DHT22;44825;53.200;6.448;2022-07-10T04:02:16;15.60;99.90
59041;DHT22;44825;53.200;6.448;2022-07-10T04:04:44;15.60;99.90
59041;DHT22;44825;53.200;6.448;2022-07-10T04:07:12;15.60;99.90
59041;DHT22;44825;53.200;6.448;2022-07-10T04:09:40;15.60;99.90
59041;DHT22;44825;53.200;6.448;2022-07-10T04:12:08;15.70;99.90
59041;DHT22;44825;53.200;6.448;2022-07-10T04:14:35;15.70;99.90
59041;DHT22;44825;53.200;6.448;2022-07-10T04:17:03;15.70;99.90
59041;DHT22;44825;53.200;6.448;2022-07-10T04:19:30;15.70;99.90
59041;DHT22;44825;53.200;6.448;2022-07-10T04:21:57;15.70;99.90
59041;DHT22;44825;53.200;6.448;2022-07-10T04:24:26;15.70;99.90
59041;DHT22;44825;53.200;6.448;2022-07-10T04:26:53;15.70;99.90
59041;DHT22;44825;53.200;6.448;2022-07-10T04:29:21;15.70;99.90
59041;DHT22;44825;53.200;6.448;2022-07-10T04:31:48;15.70;99.90
59041;DHT22;44825;53.200;6.448;2022-07-10T04:34:16;15.80;99.90
59041;DHT22;44825;53.200;6.448;2022-07-10T04:36:43;15.80;99.90
59041;DHT22;44825;53.200;6.448;2022-07-10T04:39:11;15.80;99.90
59041;DHT22;44825;53.200;6.448;2022-07-10T04:41:39;15.80;99.90
59041;DHT22;44825;53.200;6.448;2022-07-10T04:44:06;15.80;99.90
59041;DHT22;44825;53.200;6.448;2022-07-10T04:46:34;15.80;99.90
59041;DHT22;44825;53.200;6.448;2022-07-10T04:49:01;15.80;99.90
59041;DHT22;44825;53.200;6.448;2022-07-10T04:51:29;15.80;99.90
59041;DHT22;44825;53.200;6.448;2022-07-10T04:53:56;15.80;99.90
59041;DHT22;44825;53.200;6.448;2022-07-10T04:56:24;15.90;99.90
59041;DHT22;44825;53.200;6.448;2022-07-10T04:58:53;15.90;99.90
59041;DHT22;44825;53.200;6.448;2022-07-10T05:01:20;15.90;99.90
59041;DHT22;44825;53.200;6.448;2022-07-10T05:03:47;15.90;99.90
59041;DHT22;44825;53.200;6.448;2022-07-10T05:06:15;15.90;99.90
59041;DHT22;44825;53.200;6.448;2022-07-10T05:08:42;15.90;99.90
59041;DHT22;44825;53.200;6.448;2022-07-10T05:11:09;15.90;99.90
59041;DHT22;44825;53.200;6.448;2022-07-10T05:13:38;15.90;99.90
59041;DHT22;44825;53.200;6.448;2022-07-10T05:16:07;15.90;99.90
59041;DHT22;44825;53.200;6.448;2022-07-10T05:18:34;15.90;99.90
59041;DHT22;44825;53.200;6.448;2022-07-10T05:21:01;15.90;99.90
59041;DHT22;44825;53.200;6.448;2022-07-10T05:23:29;15.90;99.90
59041;DHT22;44825;53.200;6.448;2022-07-10T05:25:56;15.90;99.90
59041;DHT22;44825;53.200;6.448;2022-07-10T05:28:24;16.00;99.90
59041;DHT22;44825;53.200;6.448;2022-07-10T05:30:51;16.00;99.90
59041;DHT22;44825;53.200;6.448;2022-07-10T05:33:19;16.00;99.90
59041;DHT22;44825;53.200;6.448;2022-07-10T05:35:47;16.00;99.90
59041;DHT22;44825;53.200;6.448;2022-07-10T05:38:15;16.00;99.90
59041;DHT22;44825;53.200;6.448;2022-07-10T05:40:43;16.00;99.90
59041;DHT22;44825;53.200;6.448;2022-07-10T05:43:11;16.00;99.90
59041;DHT22;44825;53.200;6.448;2022-07-10T05:45:38;16.10;99.90
59041;DHT22;44825;53.200;6.448;2022-07-10T05:48:06;16.10;99.90
59041;DHT22;44825;53.200;6.448;2022-07-10T05:50:34;16.10;99.90
59041;DHT22;44825;53.200;6.448;2022-07-10T05:53:02;16.10;99.90
59041;DHT22;44825;53.200;6.448;2022-07-10T05:55:29;16.10;99.90
59041;DHT22;44825;53.200;6.448;2022-07-10T05:57:56;16.10;99.90
59041;DHT22;44825;53.200;6.448;2022-07-10T06:00:25;16.10;99.90
59041;DHT22;44825;53.200;6.448;2022-07-10T06:02:52;16.10;99.90
59041;DHT22;44825;53.200;6.448;2022-07-10T06:05:20;16.10;99.90
59041;DHT22;44825;53.200;6.448;2022-07-10T06:07:49;16.10;99.90
59041;DHT22;44825;53.200;6.448;2022-07-10T06:10:16;16.10;99.90
59041;DHT22;44825;53.200;6.448;2022-07-10T06:12:44;16.10;99.90
59041;DHT22;44825;53.200;6.448;2022-07-10T06:15:11;16.10;99.90
59041;DHT22;44825;53.200;6.448;2022-07-10T06:17:39;16.10;99.90
59041;DHT22;44825;53.200;6.448;2022-07-10T06:20:10;16.10;99.90
59041;DHT22;44825;53.200;6.448;2022-07-10T06:22:37;16.10;99.90
59041;DHT22;44825;53.200;6.448;2022-07-10T06:25:08;16.20;99.90
59041;DHT22;44825;53.200;6.448;2022-07-10T06:27:37;16.20;99.90
59041;DHT22;44825;53.200;6.448;2022-07-10T06:30:06;16.20;99.90
59041;DHT22;44825;53.200;6.448;2022-07-10T06:32:33;16.30;99.90
59041;DHT22;44825;53.200;6.448;2022-07-10T06:35:00;16.30;99.90
59041;DHT22;44825;53.200;6.448;2022-07-10T06:37:28;16.40;99.90
59041;DHT22;44825;53.200;6.448;2022-07-10T06:39:56;16.40;99.90
59041;DHT22;44825;53.200;6.448;2022-07-10T06:42:24;16.40;99.90
59041;DHT22;44825;53.200;6.448;2022-07-10T06:44:52;16.40;99.90
59041;DHT22;44825;53.200;6.448;2022-07-10T06:47:20;16.40;99.90
59041;DHT22;44825;53.200;6.448;2022-07-10T06:50:07;16.50;99.90
59041;DHT22;44825;53.200;6.448;2022-07-10T06:52:35;16.50;99.90
59041;DHT22;44825;53.200;6.448;2022-07-10T06:55:04;16.50;99.90
59041;DHT22;44825;53.200;6.448;2022-07-10T06:57:33;16.50;99.90
59041;DHT22;44825;53.200;6.448;2022-07-10T07:00:01;16.50;99.90
59041;DHT22;44825;53.200;6.448;2022-07-10T07:02:29;16.50;99.90
59041;DHT22;44825;53.200;6.448;2022-07-10T07:04:56;16.50;99.90
59041;DHT22;44825;53.200;6.448;2022-07-10T07:07:24;16.40;99.90
59041;DHT22;44825;53.200;6.448;2022-07-10T07:09:51;16.30;99.90
59041;DHT22;44825;53.200;6.448;2022-07-10T07:12:19;16.30;99.90
59041;DHT22;44825;53.200;6.448;2022-07-10T07:14:48;16.20;99.90
59041;DHT22;44825;53.200;6.448;2022-07-10T07:17:15;16.20;99.90
59041;DHT22;44825;53.200;6.448;2022-07-10T07:19:48;16.10;99.90
59041;DHT22;44825;53.200;6.448;2022-07-10T07:22:33;16.10;99.90
59041;DHT22;44825;53.200;6.448;2022-07-10T07:25:17;16.10;99.90
59041;DHT22;44825;53.200;6.448;2022-07-10T07:27:45;16.00;99.90
59041;DHT22;44825;53.200;6.448;2022-07-10T07:30:14;16.00;99.90
59041;DHT22;44825;53.200;6.448;2022-07-10T07:32:44;16.00;99.90
59041;DHT22;44825;53.200;6.448;2022-07-10T07:35:13;15.90;99.90
59041;DHT22;44825;53.200;6.448;2022-07-10T07:37:42;16.00;99.90
59041;DHT22;44825;53.200;6.448;2022-07-10T07:40:11;16.00;99.90
59041;DHT22;44825;53.200;6.448;2022-07-10T07:42:38;16.00;99.90
59041;DHT22;44825;53.200;6.448;2022-07-10T07:45:07;16.00;99.90
59041;DHT22;44825;53.200;6.448;2022-07-10T07:47:44;16.10;99.90
59041;DHT22;44825;53.200;6.448;2022-07-10T07:50:18;16.10;99.90
59041;DHT22;44825;53.200;6.448;2022-07-10T07:52:45;16.20;99.90
59041;DHT22;44825;53.200;6.448;2022-07-10T07:55:14;16.20;99.90
59041;DHT22;44825;53.200;6.448;2022-07-10T07:57:42;16.30;99.90
59041;DHT22;44825;53.200;6.448;2022-07-10T08:00:11;16.30;99.90
59041;DHT22;44825;53.200;6.448;2022-07-10T08:02:39;16.30;99.90
59041;DHT22;44825;53.200;6.448;2022-07-10T08:05:09;16.30;99.90
59041;DHT22;44825;53.200;6.448;2022-07-10T08:07:37;16.40;99.90
59041;DHT22;44825;53.200;6.448;2022-07-10T08:10:08;16.40;99.90
59041;DHT22;44825;53.200;6.448;2022-07-10T08:12:36;16.40;99.90
59041;DHT22;44825;53.200;6.448;2022-07-10T08:15:06;16.40;99.90
59041;DHT22;44825;53.200;6.448;2022-07-10T08:17:34;16.50;99.90
59041;DHT22;44825;53.200;6.448;2022-07-10T08:20:01;16.50;99.90
59041;DHT22;44825;53.200;6.448;2022-07-10T08:22:30;16.50;99.90
59041;DHT22;44825;53.200;6.448;2022-07-10T08:24:57;16.50;99.90
59041;DHT22;44825;53.200;6.448;2022-07-10T08:27:24;16.50;99.90
59041;DHT22;44825;53.200;6.448;2022-07-10T08:29:52;16.50;99.90
59041;DHT22;44825;53.200;6.448;2022-07-10T08:32:20;16.50;99.90
59041;DHT22;44825;53.200;6.448;2022-07-10T08:34:47;16.40;99.90
59041;DHT22;44825;53.200;6.448;2022-07-10T08:37:15;16.50;99.90
59041;DHT22;44825;53.200;6.448;2022-07-10T08:39:44;16.50;99.90
59041;DHT22;44825;53.200;6.448;2022-07-10T08:42:12;16.50;99.90
59041;DHT22;44825;53.200;6.448;2022-07-10T08:44:39;16.50;99.90
59041;DHT22;44825;53.200;6.448;2022-07-10T08:47:07;16.50;99.90
59041;DHT22;44825;53.200;6.448;2022-07-10T08:49:34;16.50;99.90
59041;DHT22;44825;53.200;6.448;2022-07-10T08:52:04;16.60;99.90
59041;DHT22;44825;53.200;6.448;2022-07-10T08:54:33;16.60;99.90
59041;DHT22;44825;53.200;6.448;2022-07-10T08:57:03;16.60;99.90
59041;DHT22;44825;53.200;6.448;2022-07-10T08:59:31;16.70;99.90
59041;DHT22;44825;53.200;6.448;2022-07-10T09:01:58;16.80;99.90
59041;DHT22;44825;53.200;6.448;2022-07-10T09:04:26;16.80;99.90
59041;DHT22;44825;53.200;6.448;2022-07-10T09:06:54;16.80;99.90
59041;DHT22;44825;53.200;6.448;2022-07-10T09:09:22;16.80;99.90
59041;DHT22;44825;53.200;6.448;2022-07-10T09:11:55;16.80;99.90
59041;DHT22;44825;53.200;6.448;2022-07-10T09:14:25;16.80;99.90
59041;DHT22;44825;53.200;6.448;2022-07-10T09:16:53;16.80;99.90
59041;DHT22;44825;53.200;6.448;2022-07-10T09:19:23;16.70;99.90
59041;DHT22;44825;53.200;6.448;2022-07-10T09:21:51;16.70;99.90
59041;DHT22;44825;53.200;6.448;2022-07-10T09:24:19;16.60;99.90
59041;DHT22;44825;53.200;6.448;2022-07-10T09:26:58;16.60;99.90
59041;DHT22;44825;53.200;6.448;2022-07-10T09:29:27;16.60;99.90
59041;DHT22;44825;53.200;6.448;2022-07-10T09:31:56;16.50;99.90
59041;DHT22;44825;53.200;6.448;2022-07-10T09:34:39;16.50;99.90
59041;DHT22;44825;53.200;6.448;2022-07-10T09:37:22;16.50;99.90
59041;DHT22;44825;53.200;6.448;2022-07-10T09:39:57;16.50;99.90
59041;DHT22;44825;53.200;6.448;2022-07-10T09:42:26;16.50;99.90
59041;DHT22;44825;53.200;6.448;2022-07-10T09:45:16;16.50;99.90
59041;DHT22;44825;53.200;6.448;2022-07-10T09:47:54;16.50;99.90
59041;DHT22;44825;53.200;6.448;2022-07-10T09:50:24;16.50;99.90
59041;DHT22;44825;53.200;6.448;2022-07-10T09:52:52;16.50;99.90
59041;DHT22;44825;53.200;6.448;2022-07-10T09:55:21;16.50;99.90
59041;DHT22;44825;53.200;6.448;2022-07-10T09:57:53;16.50;99.90
59041;DHT22;44825;53.200;6.448;2022-07-10T10:00:25;16.50;99.90
59041;DHT22;44825;53.200;6.448;2022-07-10T10:02:56;16.60;99.90
59041;DHT22;44825;53.200;6.448;2022-07-10T10:05:33;16.50;99.90
59041;DHT22;44825;53.200;6.448;2022-07-10T10:08:06;16.60;99.90
59041;DHT22;44825;53.200;6.448;2022-07-10T10:10:38;16.60;99.90
59041;DHT22;44825;53.200;6.448;2022-07-10T10:13:08;16.60;99.90
59041;DHT22;44825;53.200;6.448;2022-07-10T10:15:38;16.70;99.90
59041;DHT22;44825;53.200;6.448;2022-07-10T10:18:06;16.70;99.90
59041;DHT22;44825;53.200;6.448;2022-07-10T10:20:34;16.70;99.90
59041;DHT22;44825;53.200;6.448;2022-07-10T10:23:12;16.80;99.90
59041;DHT22;44825;53.200;6.448;2022-07-10T10:25:40;16.80;99.90
59041;DHT22;44825;53.200;6.448;2022-07-10T10:28:09;16.80;99.90
59041;DHT22;44825;53.200;6.448;2022-07-10T10:30:39;16.80;99.90
59041;DHT22;44825;53.200;6.448;2022-07-10T10:33:45;16.80;99.90
59041;DHT22;44825;53.200;6.448;2022-07-10T10:39:11;16.90;99.90
59041;DHT22;44825;53.200;6.448;2022-07-10T10:41:40;17.00;99.90
59041;DHT22;44825;53.200;6.448;2022-07-10T10:44:27;17.10;99.90
59041;DHT22;44825;53.200;6.448;2022-07-10T10:47:04;17.20;99.90
59041;DHT22;44825;53.200;6.448;2022-07-10T10:49:52;17.30;99.90
59041;DHT22;44825;53.200;6.448;2022-07-10T10:52:20;17.30;99.90
59041;DHT22;44825;53.200;6.448;2022-07-10T10:55:04;17.30;99.90
59041;DHT22;44825;53.200;6.448;2022-07-10T10:57:42;17.30;99.90
59041;DHT22;44825;53.200;6.448;2022-07-10T11:00:33;17.30;99.90
59041;DHT22;44825;53.200;6.448;2022-07-10T11:03:23;17.30;99.90
59041;DHT22;44825;53.200;6.448;2022-07-10T11:05:51;17.20;99.90
59041;DHT22;44825;53.200;6.448;2022-07-10T11:08:41;17.30;99.90
59041;DHT22;44825;53.200;6.448;2022-07-10T11:11:38;17.40;99.90
59041;DHT22;44825;53.200;6.448;2022-07-10T11:14:08;17.40;99.90
59041;DHT22;44825;53.200;6.448;2022-07-10T11:16:45;17.50;99.90
59041;DHT22;44825;53.200;6.448;2022-07-10T11:19:19;17.50;99.90
59041;DHT22;44825;53.200;6.448;2022-07-10T11:24:42;17.40;99.90
59041;DHT22;44825;53.200;6.448;2022-07-10T11:27:24;17.30;99.90
59041;DHT22;44825;53.200;6.448;2022-07-10T11:29:57;17.40;99.90
59041;DHT22;44825;53.200;6.448;2022-07-10T11:32:25;17.40;99.90
59041;DHT22;44825;53.200;6.448;2022-07-10T11:34:55;17.40;99.90
59041;DHT22;44825;53.200;6.448;2022-07-10T11:37:24;17.40;99.90
59041;DHT22;44825;53.200;6.448;2022-07-10T11:40:08;17.40;99.90
59041;DHT22;44825;53.200;6.448;2022-07-10T11:42:52;17.30;99.90
59041;DHT22;44825;53.200;6.448;2022-07-10T11:45:30;17.30;99.90
59041;DHT22;44825;53.200;6.448;2022-07-10T11:48:00;17.30;99.90
59041;DHT22;44825;53.200;6.448;2022-07-10T11:50:34;17.40;99.90
59041;DHT22;44825;53.200;6.448;2022-07-10T11:53:02;17.30;99.90
59041;DHT22;44825;53.200;6.448;2022-07-10T11:55:30;17.30;99.90
59041;DHT22;44825;53.200;6.448;2022-07-10T11:58:16;17.30;99.90
59041;DHT22;44825;53.200;6.448;2022-07-10T12:00:43;17.30;99.90
59041;DHT22;44825;53.200;6.448;2022-07-10T12:03:18;17.30;99.90
59041;DHT22;44825;53.200;6.448;2022-07-10T12:05:48;17.30;99.90
59041;DHT22;44825;53.200;6.448;2022-07-10T12:08:17;17.30;99.90
59041;DHT22;44825;53.200;6.448;2022-07-10T12:10:44;17.20;99.90
59041;DHT22;44825;53.200;6.448;2022-07-10T12:13:13;17.30;99.90
59041;DHT22;44825;53.200;6.448;2022-07-10T12:15:42;17.40;99.90
59041;DHT22;44825;53.200;6.448;2022-07-10T12:18:16;17.50;99.90
59041;DHT22;44825;53.200;6.448;2022-07-10T12:20:44;17.50;99.90
59041;DHT22;44825;53.200;6.448;2022-07-10T12:23:15;17.60;99.90
59041;DHT22;44825;53.200;6.448;2022-07-10T12:25:43;17.60;99.90
59041;DHT22;44825;53.200;6.448;2022-07-10T12:28:11;17.50;99.90
59041;DHT22;44825;53.200;6.448;2022-07-10T12:30:40;17.50;99.90
59041;DHT22;44825;53.200;6.448;2022-07-10T12:33:09;17.50;99.90
59041;DHT22;44825;53.200;6.448;2022-07-10T12:35:49;17.50;99.90
59041;DHT22;44825;53.200;6.448;2022-07-10T12:38:20;17.50;99.90
59041;DHT22;44825;53.200;6.448;2022-07-10T12:40:48;17.40;99.90
59041;DHT22;44825;53.200;6.448;2022-07-10T12:43:28;17.40;99.90
59041;DHT22;44825;53.200;6.448;2022-07-10T12:46:08;17.30;99.90
59041;DHT22;44825;53.200;6.448;2022-07-10T12:48:36;17.20;99.90
59041;DHT22;44825;53.200;6.448;2022-07-10T12:51:19;17.20;99.90
59041;DHT22;44825;53.200;6.448;2022-07-10T12:53:51;17.20;99.90
59041;DHT22;44825;53.200;6.448;2022-07-10T12:56:29;17.30;99.90
59041;DHT22;44825;53.200;6.448;2022-07-10T12:58:57;17.30;99.90
59041;DHT22;44825;53.200;6.448;2022-07-10T13:01:25;17.20;99.90
59041;DHT22;44825;53.200;6.448;2022-07-10T13:04:00;17.20;99.90
59041;DHT22;44825;53.200;6.448;2022-07-10T13:06:32;17.20;99.90
59041;DHT22;44825;53.200;6.448;2022-07-10T13:09:03;17.20;99.90
59041;DHT22;44825;53.200;6.448;2022-07-10T13:11:44;17.10;99.90
59041;DHT22;44825;53.200;6.448;2022-07-10T13:14:12;17.10;99.90
59041;DHT22;44825;53.200;6.448;2022-07-10T13:16:39;17.20;99.90
59041;DHT22;44825;53.200;6.448;2022-07-10T13:19:06;17.20;99.90
59041;DHT22;44825;53.200;6.448;2022-07-10T13:21:34;17.10;99.90
59041;DHT22;44825;53.200;6.448;2022-07-10T13:24:04;17.20;99.90
59041;DHT22;44825;53.200;6.448;2022-07-10T13:26:32;17.20;99.90
59041;DHT22;44825;53.200;6.448;2022-07-10T13:28:59;17.20;99.90
59041;DHT22;44825;53.200;6.448;2022-07-10T13:31:27;17.20;99.90
59041;DHT22;44825;53.200;6.448;2022-07-10T13:33:54;17.20;99.90
59041;DHT22;44825;53.200;6.448;2022-07-10T13:36:22;17.20;99.90
59041;DHT22;44825;53.200;6.448;2022-07-10T13:38:49;17.20;99.90
59041;DHT22;44825;53.200;6.448;2022-07-10T13:41:19;17.10;99.90
59041;DHT22;44825;53.200;6.448;2022-07-10T13:43:47;17.10;99.90
59041;DHT22;44825;53.200;6.448;2022-07-10T13:46:14;17.10;99.90
59041;DHT22;44825;53.200;6.448;2022-07-10T13:48:41;17.20;99.90
59041;DHT22;44825;53.200;6.448;2022-07-10T13:51:09;17.20;99.90
59041;DHT22;44825;53.200;6.448;2022-07-10T13:53:36;17.30;99.90
59041;DHT22;44825;53.200;6.448;2022-07-10T13:56:05;17.40;99.90
59041;DHT22;44825;53.200;6.448;2022-07-10T13:58:35;17.40;99.90
59041;DHT22;44825;53.200;6.448;2022-07-10T14:01:04;17.50;99.90
59041;DHT22;44825;53.200;6.448;2022-07-10T14:03:31;17.60;99.90
59041;DHT22;44825;53.200;6.448;2022-07-10T14:05:59;17.60;99.90
59041;DHT22;44825;53.200;6.448;2022-07-10T14:08:26;17.60;99.90
59041;DHT22;44825;53.200;6.448;2022-07-10T14:10:53;17.70;99.90
59041;DHT22;44825;53.200;6.448;2022-07-10T14:13:21;17.70;99.90
59041;DHT22;44825;53.200;6.448;2022-07-10T14:15:50;17.70;99.90
59041;DHT22;44825;53.200;6.448;2022-07-10T14:18:20;17.70;99.90
59041;DHT22;44825;53.200;6.448;2022-07-10T14:21:04;17.70;99.90
59041;DHT22;44825;53.200;6.448;2022-07-10T14:23:35;17.80;99.90
59041;DHT22;44825;53.200;6.448;2022-07-10T14:26:03;17.80;99.90
59041;DHT22;44825;53.200;6.448;2022-07-10T14:28:31;17.80;99.90
59041;DHT22;44825;53.200;6.448;2022-07-10T14:31:02;17.80;99.90
59041;DHT22;44825;53.200;6.448;2022-07-10T14:33:30;17.90;99.90
59041;DHT22;44825;53.200;6.448;2022-07-10T14:35:57;17.90;99.90
59041;DHT22;44825;53.200;6.448;2022-07-10T14:38:25;17.90;99.90
59041;DHT22;44825;53.200;6.448;2022-07-10T14:40:53;17.90;99.90
59041;DHT22;44825;53.200;6.448;2022-07-10T14:43:21;17.90;99.90
59041;DHT22;44825;53.200;6.448;2022-07-10T14:45:50;17.90;99.90
59041;DHT22;44825;53.200;6.448;2022-07-10T14:48:19;17.90;99.90
59041;DHT22;44825;53.200;6.448;2022-07-10T14:50:46;17.90;99.90
59041;DHT22;44825;53.200;6.448;2022-07-10T14:53:14;17.90;99.90
59041;DHT22;44825;53.200;6.448;2022-07-10T14:55:41;18.00;99.90
59041;DHT22;44825;53.200;6.448;2022-07-10T14:58:08;17.90;99.90
59041;DHT22;44825;53.200;6.448;2022-07-10T15:00:36;18.00;99.90
59041;DHT22;44825;53.200;6.448;2022-07-10T15:03:03;18.00;99.90
59041;DHT22;44825;53.200;6.448;2022-07-10T15:05:32;18.00;99.90
59041;DHT22;44825;53.200;6.448;2022-07-10T15:08:00;18.00;99.90
59041;DHT22;44825;53.200;6.448;2022-07-10T15:10:27;18.00;99.90
59041;DHT22;44825;53.200;6.448;2022-07-10T15:12:55;17.90;99.90
59041;DHT22;44825;53.200;6.448;2022-07-10T15:15:22;18.00;99.90
59041;DHT22;44825;53.200;6.448;2022-07-10T15:17:50;18.00;99.90
59041;DHT22;44825;53.200;6.448;2022-07-10T15:20:17;18.00;99.90
59041;DHT22;44825;53.200;6.448;2022-07-10T15:22:46;18.00;99.90
59041;DHT22;44825;53.200;6.448;2022-07-10T15:25:13;18.10;99.90
59041;DHT22;44825;53.200;6.448;2022-07-10T15:27:41;18.10;99.90
59041;DHT22;44825;53.200;6.448;2022-07-10T15:30:10;18.10;99.90
59041;DHT22;44825;53.200;6.448;2022-07-10T15:32:38;18.10;99.90
59041;DHT22;44825;53.200;6.448;2022-07-10T15:35:06;18.10;99.90
59041;DHT22;44825;53.200;6.448;2022-07-10T15:37:35;18.10;99.90
59041;DHT22;44825;53.200;6.448;2022-07-10T15:40:05;18.20;99.90
59041;DHT22;44825;53.200;6.448;2022-07-10T15:42:32;18.20;99.90
59041;DHT22;44825;53.200;6.448;2022-07-10T15:45:00;18.20;99.90
59041;DHT22;44825;53.200;6.448;2022-07-10T15:47:27;18.20;99.90
59041;DHT22;44825;53.200;6.448;2022-07-10T15:49:55;18.20;99.90
59041;DHT22;44825;53.200;6.448;2022-07-10T15:52:22;18.30;99.90